Main page
METAR-TAF:

METAR-TAF

Airports :

Rajkot Airport

Rajkot, India

latitude: 22-18N, longitude: 070-47E, elevation: 134 m

Current weather observation

The report was made 11 hours and 18 minutes ago, at 14:00 UTC
Wind 14 kt from the West/Northwest
Temperature 35°C
Humidity 27%
Pressure 1008 hPa
Visibility: 6000 m

METAR: VARK 231400Z 29014KT 6000 NSC 35/13 Q1008 NOSIG

Time: 06:48 (01:18 UTC)

Forecast

The report was made 2 hours and 18 minutes ago, at 23:00 UTC
Forecast valid from 24 at 00 UTC to 24 at 09 UTC
Wind 6 kt from the West
Visibility: 5000 m
Few clouds at a height of 2500 ft
smoke
Becoming
from 24 at 01 UTC to 24 at 03 UTC
Wind 8 kt from the Northwest
Visibility: 4000 m
smoke
Becoming
from 24 at 04 UTC to 24 at 06 UTC
Visibility: 6000 m
Few clouds at a height of 8000 ft

TAF: VARK 232300Z 2400/2409 28006KT 5000 FU FEW025 BECMG 2401/2403 32008KT 4000 FU BECMG 2404/2406 6000 FEW080

Weather observations and forecasts of more than 4000 airports (METAR and TAF reports).

The available stations are represented by yellow and red dots on the map.

Hover mouse over dot to see the name of the station.

Then click to see weather observations and forecasts.

To change the map : click on the green buttons with a black cross to zoom in, on the green button with a dash to zoom out, or on the green arrows for adjacent maps.


METAR-TAF: